sensor_id;sensor_type;location;lat;lon;timestamp;P1;durP1;ratioP1;P2;durP2;ratioP2
55469;SDS011;41334;47.872;16.384;2023-05-10T00:02:34;2.92;;;1.60;;
55469;SDS011;41334;47.872;16.384;2023-05-10T00:07:37;1.63;;;1.05;;
55469;SDS011;41334;47.872;16.384;2023-05-10T00:12:39;5.78;;;1.33;;
55469;SDS011;41334;47.872;16.384;2023-05-10T00:17:41;2.80;;;1.80;;
55469;SDS011;41334;47.872;16.384;2023-05-10T00:22:42;2.28;;;1.30;;
55469;SDS011;41334;47.872;16.384;2023-05-10T00:27:44;2.83;;;1.10;;
55469;SDS011;41334;47.872;16.384;2023-05-10T00:32:46;7.25;;;1.38;;
55469;SDS011;41334;47.872;16.384;2023-05-10T00:37:49;2.58;;;1.30;;
55469;SDS011;41334;47.872;16.384;2023-05-10T00:42:51;7.72;;;1.35;;
55469;SDS011;41334;47.872;16.384;2023-05-10T00:47:53;3.25;;;0.93;;
55469;SDS011;41334;47.872;16.384;2023-05-10T00:52:57;2.38;;;1.23;;
55469;SDS011;41334;47.872;16.384;2023-05-10T00:58:01;2.03;;;1.23;;
55469;SDS011;41334;47.872;16.384;2023-05-10T01:03:03;1.90;;;1.17;;
55469;SDS011;41334;47.872;16.384;2023-05-10T01:08:05;3.63;;;1.48;;
55469;SDS011;41334;47.872;16.384;2023-05-10T01:13:10;1.15;;;0.77;;
55469;SDS011;41334;47.872;16.384;2023-05-10T01:18:12;2.33;;;1.10;;
55469;SDS011;41334;47.872;16.384;2023-05-10T01:43:51;3.80;;;0.93;;
55469;SDS011;41334;47.872;16.384;2023-05-10T01:49:10;1.70;;;0.68;;
55469;SDS011;41334;47.872;16.384;2023-05-10T01:54:17;1.38;;;0.80;;
55469;SDS011;41334;47.872;16.384;2023-05-10T01:59:21;1.23;;;0.85;;
55469;SDS011;41334;47.872;16.384;2023-05-10T02:04:27;2.83;;;1.35;;
55469;SDS011;41334;47.872;16.384;2023-05-10T02:09:30;2.65;;;1.40;;
55469;SDS011;41334;47.872;16.384;2023-05-10T02:14:35;3.70;;;1.23;;
55469;SDS011;41334;47.872;16.384;2023-05-10T02:19:38;2.95;;;1.23;;
55469;SDS011;41334;47.872;16.384;2023-05-10T02:24:43;3.38;;;1.33;;
55469;SDS011;41334;47.872;16.384;2023-05-10T02:29:46;2.15;;;1.23;;
55469;SDS011;41334;47.872;16.384;2023-05-10T02:34:49;2.97;;;1.38;;
55469;SDS011;41334;47.872;16.384;2023-05-10T02:39:53;1.38;;;0.90;;
55469;SDS011;41334;47.872;16.384;2023-05-10T02:44:59;3.60;;;1.60;;
55469;SDS011;41334;47.872;16.384;2023-05-10T02:50:02;2.00;;;0.88;;
55469;SDS011;41334;47.872;16.384;2023-05-10T02:55:06;2.67;;;1.13;;
55469;SDS011;41334;47.872;16.384;2023-05-10T03:00:13;2.53;;;1.20;;
55469;SDS011;41334;47.872;16.384;2023-05-10T03:05:15;2.45;;;1.33;;
55469;SDS011;41334;47.872;16.384;2023-05-10T03:10:17;1.58;;;0.90;;
55469;SDS011;41334;47.872;16.384;2023-05-10T03:15:25;1.70;;;0.98;;
55469;SDS011;41334;47.872;16.384;2023-05-10T03:20:29;3.50;;;1.42;;
55469;SDS011;41334;47.872;16.384;2023-05-10T03:25:36;3.35;;;1.35;;
55469;SDS011;41334;47.872;16.384;2023-05-10T03:30:41;2.85;;;1.25;;
55469;SDS011;41334;47.872;16.384;2023-05-10T03:35:46;3.35;;;1.40;;
55469;SDS011;41334;47.872;16.384;2023-05-10T03:40:49;2.15;;;1.27;;
55469;SDS011;41334;47.872;16.384;2023-05-10T03:45:51;3.50;;;1.67;;
55469;SDS011;41334;47.872;16.384;2023-05-10T03:50:53;2.40;;;1.17;;
55469;SDS011;41334;47.872;16.384;2023-05-10T03:55:55;2.25;;;1.00;;
55469;SDS011;41334;47.872;16.384;2023-05-10T04:00:58;2.53;;;1.20;;
55469;SDS011;41334;47.872;16.384;2023-05-10T04:06:00;1.85;;;1.20;;
55469;SDS011;41334;47.872;16.384;2023-05-10T04:11:07;2.55;;;0.43;;
55469;SDS011;41334;47.872;16.384;2023-05-10T04:16:09;2.40;;;1.42;;
55469;SDS011;41334;47.872;16.384;2023-05-10T04:21:12;4.43;;;1.70;;
55469;SDS011;41334;47.872;16.384;2023-05-10T04:26:14;2.28;;;1.33;;
55469;SDS011;41334;47.872;16.384;2023-05-10T04:31:16;2.88;;;1.40;;
55469;SDS011;41334;47.872;16.384;2023-05-10T04:36:18;2.50;;;0.88;;
55469;SDS011;41334;47.872;16.384;2023-05-10T04:41:20;1.85;;;1.42;;
55469;SDS011;41334;47.872;16.384;2023-05-10T04:46:22;1.25;;;0.80;;
55469;SDS011;41334;47.872;16.384;2023-05-10T04:51:24;1.90;;;1.00;;
55469;SDS011;41334;47.872;16.384;2023-05-10T04:56:25;1.30;;;0.82;;
55469;SDS011;41334;47.872;16.384;2023-05-10T05:01:27;1.58;;;0.85;;
55469;SDS011;41334;47.872;16.384;2023-05-10T05:06:29;2.10;;;0.93;;
55469;SDS011;41334;47.872;16.384;2023-05-10T05:11:31;2.92;;;1.52;;
55469;SDS011;41334;47.872;16.384;2023-05-10T05:16:33;2.80;;;1.50;;
55469;SDS011;41334;47.872;16.384;2023-05-10T05:21:34;4.70;;;1.80;;
55469;SDS011;41334;47.872;16.384;2023-05-10T05:26:37;3.97;;;2.00;;
55469;SDS011;41334;47.872;16.384;2023-05-10T05:31:38;1.52;;;0.88;;
55469;SDS011;41334;47.872;16.384;2023-05-10T05:36:40;4.93;;;1.83;;
55469;SDS011;41334;47.872;16.384;2023-05-10T05:41:42;2.58;;;1.55;;
55469;SDS011;41334;47.872;16.384;2023-05-10T05:46:44;3.58;;;1.60;;
55469;SDS011;41334;47.872;16.384;2023-05-10T05:51:46;3.10;;;1.67;;
55469;SDS011;41334;47.872;16.384;2023-05-10T05:56:50;3.05;;;1.73;;
55469;SDS011;41334;47.872;16.384;2023-05-10T06:01:52;5.95;;;1.85;;
55469;SDS011;41334;47.872;16.384;2023-05-10T06:06:56;1.55;;;1.08;;
55469;SDS011;41334;47.872;16.384;2023-05-10T06:11:58;3.85;;;2.42;;
55469;SDS011;41334;47.872;16.384;2023-05-10T06:17:00;5.20;;;1.48;;
55469;SDS011;41334;47.872;16.384;2023-05-10T06:22:02;3.38;;;1.85;;
55469;SDS011;41334;47.872;16.384;2023-05-10T06:27:04;3.95;;;1.05;;
55469;SDS011;41334;47.872;16.384;2023-05-10T06:32:07;3.25;;;1.95;;
55469;SDS011;41334;47.872;16.384;2023-05-10T06:37:08;4.88;;;2.05;;
55469;SDS011;41334;47.872;16.384;2023-05-10T06:42:10;5.50;;;1.90;;
55469;SDS011;41334;47.872;16.384;2023-05-10T06:47:12;3.55;;;1.55;;
55469;SDS011;41334;47.872;16.384;2023-05-10T06:52:13;3.83;;;1.80;;
55469;SDS011;41334;47.872;16.384;2023-05-10T06:57:15;2.83;;;1.55;;
55469;SDS011;41334;47.872;16.384;2023-05-10T07:02:31;3.83;;;1.90;;
55469;SDS011;41334;47.872;16.384;2023-05-10T07:07:33;3.90;;;1.77;;
55469;SDS011;41334;47.872;16.384;2023-05-10T07:12:34;2.17;;;1.05;;
55469;SDS011;41334;47.872;16.384;2023-05-10T07:17:36;4.50;;;1.50;;
55469;SDS011;41334;47.872;16.384;2023-05-10T07:22:38;4.13;;;1.73;;
55469;SDS011;41334;47.872;16.384;2023-05-10T07:27:40;2.92;;;1.75;;
55469;SDS011;41334;47.872;16.384;2023-05-10T07:32:42;4.00;;;1.80;;
55469;SDS011;41334;47.872;16.384;2023-05-10T07:37:44;1.45;;;0.90;;
55469;SDS011;41334;47.872;16.384;2023-05-10T07:42:45;2.75;;;1.58;;
55469;SDS011;41334;47.872;16.384;2023-05-10T07:47:47;2.53;;;1.50;;
55469;SDS011;41334;47.872;16.384;2023-05-10T07:52:49;1.80;;;1.05;;
55469;SDS011;41334;47.872;16.384;2023-05-10T07:57:51;3.72;;;1.73;;
55469;SDS011;41334;47.872;16.384;2023-05-10T08:02:53;3.53;;;1.85;;
55469;SDS011;41334;47.872;16.384;2023-05-10T08:07:55;2.25;;;1.33;;
55469;SDS011;41334;47.872;16.384;2023-05-10T08:12:56;2.67;;;1.27;;
55469;SDS011;41334;47.872;16.384;2023-05-10T08:17:59;4.65;;;2.22;;
55469;SDS011;41334;47.872;16.384;2023-05-10T08:23:01;4.45;;;2.55;;
55469;SDS011;41334;47.872;16.384;2023-05-10T08:28:03;3.25;;;1.70;;
55469;SDS011;41334;47.872;16.384;2023-05-10T08:33:05;3.40;;;1.83;;
55469;SDS011;41334;47.872;16.384;2023-05-10T08:38:07;2.50;;;1.35;;
55469;SDS011;41334;47.872;16.384;2023-05-10T08:43:10;3.60;;;1.42;;
55469;SDS011;41334;47.872;16.384;2023-05-10T08:48:13;7.88;;;2.65;;
55469;SDS011;41334;47.872;16.384;2023-05-10T08:53:16;8.18;;;2.03;;
55469;SDS011;41334;47.872;16.384;2023-05-10T08:58:17;3.60;;;2.05;;
55469;SDS011;41334;47.872;16.384;2023-05-10T09:03:20;3.13;;;1.80;;
55469;SDS011;41334;47.872;16.384;2023-05-10T09:08:23;2.78;;;1.50;;
55469;SDS011;41334;47.872;16.384;2023-05-10T09:13:28;4.78;;;1.92;;
55469;SDS011;41334;47.872;16.384;2023-05-10T09:18:31;1.77;;;1.17;;
55469;SDS011;41334;47.872;16.384;2023-05-10T09:23:33;3.92;;;0.80;;
55469;SDS011;41334;47.872;16.384;2023-05-10T09:28:50;1.65;;;0.82;;
55469;SDS011;41334;47.872;16.384;2023-05-10T09:33:56;1.02;;;0.60;;
55469;SDS011;41334;47.872;16.384;2023-05-10T09:38:59;1.88;;;0.98;;
55469;SDS011;41334;47.872;16.384;2023-05-10T09:44:01;1.00;;;0.60;;
55469;SDS011;41334;47.872;16.384;2023-05-10T09:49:03;0.93;;;0.65;;
55469;SDS011;41334;47.872;16.384;2023-05-10T09:54:10;1.55;;;0.80;;
55469;SDS011;41334;47.872;16.384;2023-05-10T09:59:13;0.85;;;0.57;;
55469;SDS011;41334;47.872;16.384;2023-05-10T10:04:15;1.70;;;0.90;;
55469;SDS011;41334;47.872;16.384;2023-05-10T10:09:17;1.48;;;0.65;;
55469;SDS011;41334;47.872;16.384;2023-05-10T10:14:20;1.95;;;0.50;;
55469;SDS011;41334;47.872;16.384;2023-05-10T10:19:24;1.13;;;0.47;;
55469;SDS011;41334;47.872;16.384;2023-05-10T10:24:26;2.53;;;0.98;;
55469;SDS011;41334;47.872;16.384;2023-05-10T10:29:37;2.38;;;0.80;;
55469;SDS011;41334;47.872;16.384;2023-05-10T10:34:45;1.88;;;0.95;;
55469;SDS011;41334;47.872;16.384;2023-05-10T10:39:48;1.48;;;0.70;;
55469;SDS011;41334;47.872;16.384;2023-05-10T10:45:05;1.45;;;0.80;;
55469;SDS011;41334;47.872;16.384;2023-05-10T10:50:13;1.67;;;0.82;;
55469;SDS011;41334;47.872;16.384;2023-05-10T10:55:18;2.72;;;1.00;;
55469;SDS011;41334;47.872;16.384;2023-05-10T11:00:28;5.35;;;1.20;;
55469;SDS011;41334;47.872;16.384;2023-05-10T11:10:37;3.25;;;0.90;;
55469;SDS011;41334;47.872;16.384;2023-05-10T11:15:40;2.03;;;0.90;;
55469;SDS011;41334;47.872;16.384;2023-05-10T11:20:50;1.92;;;0.88;;
55469;SDS011;41334;47.872;16.384;2023-05-10T11:25:53;4.30;;;0.75;;
55469;SDS011;41334;47.872;16.384;2023-05-10T11:30:55;2.03;;;1.00;;
55469;SDS011;41334;47.872;16.384;2023-05-10T11:35:58;1.10;;;0.70;;
55469;SDS011;41334;47.872;16.384;2023-05-10T11:41:00;1.67;;;0.40;;
55469;SDS011;41334;47.872;16.384;2023-05-10T11:46:02;1.70;;;0.95;;
55469;SDS011;41334;47.872;16.384;2023-05-10T11:51:04;1.88;;;0.90;;
55469;SDS011;41334;47.872;16.384;2023-05-10T11:56:06;2.08;;;0.90;;
55469;SDS011;41334;47.872;16.384;2023-05-10T12:01:10;1.30;;;0.60;;
55469;SDS011;41334;47.872;16.384;2023-05-10T12:06:12;1.10;;;0.70;;
55469;SDS011;41334;47.872;16.384;2023-05-10T12:11:14;3.92;;;0.90;;
55469;SDS011;41334;47.872;16.384;2023-05-10T12:16:20;1.00;;;0.60;;
55469;SDS011;41334;47.872;16.384;2023-05-10T12:21:27;1.20;;;0.77;;
55469;SDS011;41334;47.872;16.384;2023-05-10T12:26:30;1.08;;;0.70;;
55469;SDS011;41334;47.872;16.384;2023-05-10T12:31:32;1.50;;;0.80;;
55469;SDS011;41334;47.872;16.384;2023-05-10T12:36:34;1.20;;;0.50;;
55469;SDS011;41334;47.872;16.384;2023-05-10T12:41:39;2.22;;;0.70;;
55469;SDS011;41334;47.872;16.384;2023-05-10T12:46:44;0.80;;;0.52;;
55469;SDS011;41334;47.872;16.384;2023-05-10T12:51:46;1.00;;;0.52;;
55469;SDS011;41334;47.872;16.384;2023-05-10T12:56:47;1.20;;;0.68;;
55469;SDS011;41334;47.872;16.384;2023-05-10T13:01:49;1.33;;;0.80;;
55469;SDS011;41334;47.872;16.384;2023-05-10T13:06:51;1.05;;;0.65;;
55469;SDS011;41334;47.872;16.384;2023-05-10T13:11:53;2.63;;;1.10;;
55469;SDS011;41334;47.872;16.384;2023-05-10T13:16:55;2.75;;;0.90;;
55469;SDS011;41334;47.872;16.384;2023-05-10T13:21:57;3.33;;;0.73;;
55469;SDS011;41334;47.872;16.384;2023-05-10T13:26:59;2.00;;;1.00;;
55469;SDS011;41334;47.872;16.384;2023-05-10T13:32:01;2.05;;;1.00;;
55469;SDS011;41334;47.872;16.384;2023-05-10T13:37:03;1.30;;;0.80;;
55469;SDS011;41334;47.872;16.384;2023-05-10T13:42:05;1.52;;;0.70;;
55469;SDS011;41334;47.872;16.384;2023-05-10T13:47:06;4.88;;;1.17;;
55469;SDS011;41334;47.872;16.384;2023-05-10T13:52:08;1.90;;;0.95;;
55469;SDS011;41334;47.872;16.384;2023-05-10T13:57:11;2.65;;;0.85;;
55469;SDS011;41334;47.872;16.384;2023-05-10T14:02:15;1.02;;;0.70;;
55469;SDS011;41334;47.872;16.384;2023-05-10T14:07:17;2.25;;;0.95;;
55469;SDS011;41334;47.872;16.384;2023-05-10T14:12:19;1.83;;;0.80;;
55469;SDS011;41334;47.872;16.384;2023-05-10T14:17:20;1.40;;;0.93;;
55469;SDS011;41334;47.872;16.384;2023-05-10T14:22:23;1.95;;;0.90;;
55469;SDS011;41334;47.872;16.384;2023-05-10T14:27:25;3.20;;;1.30;;
55469;SDS011;41334;47.872;16.384;2023-05-10T14:32:27;2.47;;;0.95;;
55469;SDS011;41334;47.872;16.384;2023-05-10T14:37:29;1.55;;;0.90;;
55469;SDS011;41334;47.872;16.384;2023-05-10T14:42:31;1.85;;;0.85;;
55469;SDS011;41334;47.872;16.384;2023-05-10T14:47:33;4.28;;;1.10;;
55469;SDS011;41334;47.872;16.384;2023-05-10T14:52:35;2.92;;;1.02;;
55469;SDS011;41334;47.872;16.384;2023-05-10T14:57:37;1.52;;;0.80;;
55469;SDS011;41334;47.872;16.384;2023-05-10T15:02:39;2.05;;;0.95;;
55469;SDS011;41334;47.872;16.384;2023-05-10T15:07:42;1.15;;;0.65;;
55469;SDS011;41334;47.872;16.384;2023-05-10T15:12:45;2.75;;;0.80;;
55469;SDS011;41334;47.872;16.384;2023-05-10T15:17:47;3.08;;;0.82;;
55469;SDS011;41334;47.872;16.384;2023-05-10T15:22:49;2.22;;;0.60;;
55469;SDS011;41334;47.872;16.384;2023-05-10T15:27:51;1.63;;;0.65;;
55469;SDS011;41334;47.872;16.384;2023-05-10T15:32:53;1.35;;;0.77;;
55469;SDS011;41334;47.872;16.384;2023-05-10T15:37:55;3.92;;;0.75;;
55469;SDS011;41334;47.872;16.384;2023-05-10T15:42:56;3.28;;;1.17;;
55469;SDS011;41334;47.872;16.384;2023-05-10T15:47:58;2.28;;;0.90;;
55469;SDS011;41334;47.872;16.384;2023-05-10T15:53:00;1.67;;;0.70;;
55469;SDS011;41334;47.872;16.384;2023-05-10T15:58:02;1.50;;;0.80;;
55469;SDS011;41334;47.872;16.384;2023-05-10T16:03:04;8.75;;;0.82;;
55469;SDS011;41334;47.872;16.384;2023-05-10T16:08:07;5.78;;;1.05;;
55469;SDS011;41334;47.872;16.384;2023-05-10T16:13:08;1.45;;;0.80;;
55469;SDS011;41334;47.872;16.384;2023-05-10T16:18:10;1.38;;;0.80;;
55469;SDS011;41334;47.872;16.384;2023-05-10T16:23:12;1.08;;;0.57;;
55469;SDS011;41334;47.872;16.384;2023-05-10T16:28:15;1.42;;;0.88;;
55469;SDS011;41334;47.872;16.384;2023-05-10T16:33:17;1.98;;;0.85;;
55469;SDS011;41334;47.872;16.384;2023-05-10T16:38:19;1.40;;;0.75;;
55469;SDS011;41334;47.872;16.384;2023-05-10T16:43:22;6.28;;;1.05;;
55469;SDS011;41334;47.872;16.384;2023-05-10T16:48:26;1.10;;;0.73;;
55469;SDS011;41334;47.872;16.384;2023-05-10T16:53:28;2.40;;;0.68;;
55469;SDS011;41334;47.872;16.384;2023-05-10T16:58:30;1.45;;;0.88;;
55469;SDS011;41334;47.872;16.384;2023-05-10T17:03:31;1.30;;;0.70;;
55469;SDS011;41334;47.872;16.384;2023-05-10T17:08:34;1.70;;;0.80;;
55469;SDS011;41334;47.872;16.384;2023-05-10T17:13:36;1.40;;;0.80;;
55469;SDS011;41334;47.872;16.384;2023-05-10T17:18:39;2.33;;;1.27;;
55469;SDS011;41334;47.872;16.384;2023-05-10T17:23:42;2.95;;;1.10;;
55469;SDS011;41334;47.872;16.384;2023-05-10T17:28:43;4.68;;;0.90;;
55469;SDS011;41334;47.872;16.384;2023-05-10T17:33:45;2.17;;;0.95;;
55469;SDS011;41334;47.872;16.384;2023-05-10T17:38:47;1.80;;;0.80;;
55469;SDS011;41334;47.872;16.384;2023-05-10T17:43:49;1.45;;;0.80;;
55469;SDS011;41334;47.872;16.384;2023-05-10T17:48:51;3.08;;;1.13;;
55469;SDS011;41334;47.872;16.384;2023-05-10T17:53:53;1.70;;;1.00;;
55469;SDS011;41334;47.872;16.384;2023-05-10T17:58:55;1.77;;;0.80;;
55469;SDS011;41334;47.872;16.384;2023-05-10T18:03:57;2.63;;;0.80;;
55469;SDS011;41334;47.872;16.384;2023-05-10T18:08:58;4.13;;;1.17;;
55469;SDS011;41334;47.872;16.384;2023-05-10T18:14:01;1.67;;;0.82;;
55469;SDS011;41334;47.872;16.384;2023-05-10T18:19:02;3.78;;;1.00;;
55469;SDS011;41334;47.872;16.384;2023-05-10T18:24:04;4.13;;;0.85;;
55469;SDS011;41334;47.872;16.384;2023-05-10T18:29:06;2.88;;;1.00;;
55469;SDS011;41334;47.872;16.384;2023-05-10T18:34:08;2.20;;;1.10;;
55469;SDS011;41334;47.872;16.384;2023-05-10T18:39:10;1.88;;;0.88;;
55469;SDS011;41334;47.872;16.384;2023-05-10T18:44:13;2.38;;;1.05;;
55469;SDS011;41334;47.872;16.384;2023-05-10T18:49:15;6.63;;;1.00;;
55469;SDS011;41334;47.872;16.384;2023-05-10T18:54:17;2.60;;;1.08;;
55469;SDS011;41334;47.872;16.384;2023-05-10T18:59:18;1.55;;;1.00;;
55469;SDS011;41334;47.872;16.384;2023-05-10T19:04:20;8.50;;;1.30;;
55469;SDS011;41334;47.872;16.384;2023-05-10T19:09:22;3.15;;;1.10;;
55469;SDS011;41334;47.872;16.384;2023-05-10T19:14:24;1.70;;;1.00;;
55469;SDS011;41334;47.872;16.384;2023-05-10T19:19:26;2.05;;;1.10;;
55469;SDS011;41334;47.872;16.384;2023-05-10T19:24:28;6.35;;;1.10;;
55469;SDS011;41334;47.872;16.384;2023-05-10T19:29:30;3.10;;;1.20;;
55469;SDS011;41334;47.872;16.384;2023-05-10T19:34:32;2.17;;;1.00;;
55469;SDS011;41334;47.872;16.384;2023-05-10T19:39:34;3.40;;;1.20;;
55469;SDS011;41334;47.872;16.384;2023-05-10T19:44:36;2.65;;;1.58;;
55469;SDS011;41334;47.872;16.384;2023-05-10T19:49:38;1.50;;;1.00;;
55469;SDS011;41334;47.872;16.384;2023-05-10T19:54:40;2.03;;;1.10;;
55469;SDS011;41334;47.872;16.384;2023-05-10T19:59:41;2.92;;;1.17;;
55469;SDS011;41334;47.872;16.384;2023-05-10T20:04:43;2.00;;;1.13;;
55469;SDS011;41334;47.872;16.384;2023-05-10T20:09:45;1.63;;;1.02;;
55469;SDS011;41334;47.872;16.384;2023-05-10T20:14:47;5.03;;;1.20;;
55469;SDS011;41334;47.872;16.384;2023-05-10T20:19:49;2.03;;;1.17;;
55469;SDS011;41334;47.872;16.384;2023-05-10T20:24:51;2.53;;;1.30;;
55469;SDS011;41334;47.872;16.384;2023-05-10T20:29:56;1.83;;;1.13;;
55469;SDS011;41334;47.872;16.384;2023-05-10T20:34:58;2.28;;;0.90;;
55469;SDS011;41334;47.872;16.384;2023-05-10T20:39:59;1.90;;;1.08;;
55469;SDS011;41334;47.872;16.384;2023-05-10T20:45:01;2.03;;;1.23;;
55469;SDS011;41334;47.872;16.384;2023-05-10T20:50:03;2.17;;;1.17;;
55469;SDS011;41334;47.872;16.384;2023-05-10T20:55:06;4.97;;;1.27;;
55469;SDS011;41334;47.872;16.384;2023-05-10T21:00:08;4.68;;;1.27;;
55469;SDS011;41334;47.872;16.384;2023-05-10T21:05:10;4.97;;;1.40;;
55469;SDS011;41334;47.872;16.384;2023-05-10T21:10:12;1.70;;;1.13;;
55469;SDS011;41334;47.872;16.384;2023-05-10T21:15:14;1.40;;;0.90;;
55469;SDS011;41334;47.872;16.384;2023-05-10T21:20:16;2.38;;;1.13;;
55469;SDS011;41334;47.872;16.384;2023-05-10T21:25:18;4.30;;;1.30;;
55469;SDS011;41334;47.872;16.384;2023-05-10T21:30:19;1.95;;;1.00;;
55469;SDS011;41334;47.872;16.384;2023-05-10T21:35:21;1.70;;;0.90;;
55469;SDS011;41334;47.872;16.384;2023-05-10T21:40:23;2.65;;;1.20;;
55469;SDS011;41334;47.872;16.384;2023-05-10T21:45:25;2.60;;;1.30;;
55469;SDS011;41334;47.872;16.384;2023-05-10T21:50:27;5.53;;;1.30;;
55469;SDS011;41334;47.872;16.384;2023-05-10T21:55:29;2.45;;;1.40;;
55469;SDS011;41334;47.872;16.384;2023-05-10T22:00:31;2.28;;;1.27;;
55469;SDS011;41334;47.872;16.384;2023-05-10T22:05:34;1.58;;;0.85;;
55469;SDS011;41334;47.872;16.384;2023-05-10T22:10:36;1.65;;;0.90;;
55469;SDS011;41334;47.872;16.384;2023-05-10T22:15:38;1.55;;;0.70;;
55469;SDS011;41334;47.872;16.384;2023-05-10T22:20:40;1.75;;;1.13;;
55469;SDS011;41334;47.872;16.384;2023-05-10T22:25:44;1.58;;;1.00;;
55469;SDS011;41334;47.872;16.384;2023-05-10T22:30:46;2.28;;;1.15;;
55469;SDS011;41334;47.872;16.384;2023-05-10T22:35:48;1.45;;;0.90;;
55469;SDS011;41334;47.872;16.384;2023-05-10T22:40:50;4.95;;;1.00;;
55469;SDS011;41334;47.872;16.384;2023-05-10T22:45:52;2.45;;;1.23;;
55469;SDS011;41334;47.872;16.384;2023-05-10T22:50:54;2.03;;;1.17;;
55469;SDS011;41334;47.872;16.384;2023-05-10T22:55:56;1.85;;;1.08;;
55469;SDS011;41334;47.872;16.384;2023-05-10T23:00:58;4.22;;;1.35;;
55469;SDS011;41334;47.872;16.384;2023-05-10T23:06:00;2.33;;;1.20;;
55469;SDS011;41334;47.872;16.384;2023-05-10T23:11:02;1.48;;;0.80;;
55469;SDS011;41334;47.872;16.384;2023-05-10T23:16:06;4.22;;;1.05;;
55469;SDS011;41334;47.872;16.384;2023-05-10T23:21:08;1.88;;;1.08;;
55469;SDS011;41334;47.872;16.384;2023-05-10T23:26:10;2.13;;;1.33;;
55469;SDS011;41334;47.872;16.384;2023-05-10T23:31:12;1.33;;;0.73;;
55469;SDS011;41334;47.872;16.384;2023-05-10T23:36:15;2.10;;;1.05;;
55469;SDS011;41334;47.872;16.384;2023-05-10T23:41:16;2.63;;;1.10;;
55469;SDS011;41334;47.872;16.384;2023-05-10T23:46:18;2.13;;;1.10;;
55469;SDS011;41334;47.872;16.384;2023-05-10T23:51:20;2.33;;;1.35;;
55469;SDS011;41334;47.872;16.384;2023-05-10T23:56:22;5.85;;;1.50;;
